createdAt,value
2023-04-09T00:03:22.567Z,28.00
2023-04-09T00:08:27.870Z,23.12
2023-04-09T00:13:39.255Z,24.98
2023-04-09T00:18:43.688Z,26.30
2023-04-09T00:23:48.761Z,25.80
2023-04-09T00:28:52.767Z,26.60
2023-04-09T00:33:57.089Z,24.75
2023-04-09T00:39:02.231Z,27.27
2023-04-09T00:44:06.015Z,27.42
2023-04-09T00:49:09.780Z,35.22
2023-04-09T00:54:16.095Z,42.67
2023-04-09T00:59:20.489Z,53.78
2023-04-09T01:04:25.449Z,55.45
2023-04-09T01:09:36.576Z,59.47
2023-04-09T01:14:46.960Z,55.47
2023-04-09T01:19:59.662Z,56.35
2023-04-09T01:25:17.069Z,50.25
2023-04-09T01:30:23.673Z,55.00
2023-04-09T01:35:29.730Z,52.45
2023-04-09T01:40:33.926Z,50.92
2023-04-09T01:45:39.915Z,54.50
2023-04-09T01:50:44.867Z,49.42
2023-04-09T01:55:48.725Z,51.10
2023-04-09T02:00:58.413Z,47.92
2023-04-09T02:06:07.337Z,47.75
2023-04-09T02:11:12.425Z,40.83
2023-04-09T02:16:18.687Z,42.05
2023-04-09T02:21:23.349Z,39.45
2023-04-09T02:26:27.126Z,40.70
2023-04-09T02:31:32.293Z,37.83
2023-04-09T02:36:36.194Z,32.72
2023-04-09T02:41:40.013Z,35.13
2023-04-09T02:46:48.323Z,36.83
2023-04-09T02:56:56.302Z,35.83
2023-04-09T03:02:01.489Z,41.90
2023-04-09T03:07:05.467Z,40.75
2023-04-09T03:12:09.341Z,40.90
2023-04-09T03:17:14.471Z,38.70
2023-04-09T03:22:18.192Z,40.78
2023-04-09T03:27:22.605Z,41.50
2023-04-09T03:32:28.810Z,39.58
2023-04-09T03:37:33.061Z,39.15
2023-04-09T03:42:37.417Z,40.35
2023-04-09T03:47:45.358Z,42.13
2023-04-09T03:52:49.513Z,44.63
2023-04-09T03:57:53.260Z,43.15
2023-04-09T04:02:59.781Z,43.00
2023-04-09T04:08:07.782Z,47.08
2023-04-09T04:13:11.782Z,49.63
2023-04-09T04:18:18.529Z,50.80
2023-04-09T04:23:23.556Z,53.65
2023-04-09T04:28:28.131Z,51.47
2023-04-09T04:33:33.514Z,52.00
2023-04-09T04:38:38.059Z,50.47
2023-04-09T04:43:42.436Z,54.25
2023-04-09T04:48:51.289Z,60.60
2023-04-09T04:53:55.912Z,64.82
2023-04-09T04:59:01.393Z,61.90
2023-04-09T05:04:09.283Z,65.43
2023-04-09T05:09:13.412Z,67.30
2023-04-09T05:14:18.513Z,68.97
2023-04-09T05:19:23.648Z,67.55
2023-04-09T05:24:30.122Z,71.85
2023-04-09T05:29:33.864Z,66.45
2023-04-09T05:34:40.353Z,69.50
2023-04-09T05:39:44.161Z,66.72
2023-04-09T05:44:47.983Z,64.70
2023-04-09T05:49:53.621Z,63.75
2023-04-09T05:54:57.500Z,66.45
2023-04-09T06:00:02.036Z,65.62
2023-04-09T06:05:08.204Z,60.55
2023-04-09T06:10:12.249Z,56.00
2023-04-09T06:15:16.423Z,54.00
2023-04-09T06:20:21.706Z,57.17
2023-04-09T06:25:25.646Z,53.05
2023-04-09T06:30:29.483Z,64.22
2023-04-09T06:35:34.568Z,54.28
2023-04-09T06:40:38.887Z,56.97
2023-04-09T06:45:42.598Z,55.65
2023-04-09T06:50:47.772Z,54.72
2023-04-09T06:55:52.029Z,52.95
2023-04-09T07:00:55.864Z,53.75
2023-04-09T07:06:00.943Z,58.50
2023-04-09T07:11:04.765Z,57.75
2023-04-09T07:16:08.609Z,55.70
2023-04-09T07:21:14.182Z,52.78
2023-04-09T07:26:17.884Z,53.70
2023-04-09T07:31:21.596Z,59.25
2023-04-09T07:36:27.990Z,51.08
2023-04-09T07:41:31.738Z,54.38
2023-04-09T07:46:35.445Z,55.55
2023-04-09T07:51:40.560Z,54.00
2023-04-09T07:56:44.324Z,47.55
2023-04-09T08:01:48.263Z,50.35
2023-04-09T08:06:53.964Z,48.53
2023-04-09T08:11:57.746Z,52.10
2023-04-09T08:17:01.765Z,52.28
2023-04-09T08:22:06.817Z,48.78
2023-04-09T08:27:10.544Z,50.15
2023-04-09T08:32:14.363Z,46.05
2023-04-09T08:37:19.449Z,47.05
2023-04-09T08:42:24.089Z,46.20
2023-04-09T08:47:28.531Z,48.40
2023-04-09T08:52:35.722Z,47.83
2023-04-09T08:57:39.934Z,48.55
2023-04-09T09:03:05.371Z,44.55
2023-04-09T09:08:11.864Z,51.78
2023-04-09T09:13:20.422Z,46.13
2023-04-09T09:18:40.404Z,44.97
2023-04-09T09:23:48.337Z,47.40
2023-04-09T09:28:53.048Z,47.15
2023-04-09T09:33:57.015Z,48.85
2023-04-09T09:39:05.344Z,40.88
2023-04-09T09:44:12.810Z,38.08
2023-04-09T09:49:16.576Z,41.97
2023-04-09T09:54:24.607Z,38.10
2023-04-09T09:59:34.626Z,38.28
2023-04-09T10:04:38.591Z,34.78
2023-04-09T10:09:49.241Z,35.55
2023-04-09T10:14:54.150Z,34.55
2023-04-09T10:20:02.815Z,34.40
2023-04-09T10:25:08.930Z,34.45
2023-04-09T10:30:33.009Z,35.95
2023-04-09T10:35:36.830Z,28.90
2023-04-09T10:40:49.489Z,26.08
2023-04-09T10:45:54.465Z,26.77
2023-04-09T10:50:58.215Z,23.15
2023-04-09T10:56:16.964Z,26.10
2023-04-09T11:01:24.020Z,24.52
2023-04-09T11:06:27.972Z,24.70
2023-04-09T11:11:34.860Z,24.02
2023-04-09T11:16:38.618Z,23.35
2023-04-09T11:21:46.079Z,18.48
2023-04-09T11:26:51.333Z,20.80
2023-04-09T11:31:55.207Z,18.45
2023-04-09T11:36:59.841Z,21.05
2023-04-09T11:42:04.961Z,20.73
2023-04-09T11:47:10.300Z,21.10
2023-04-09T11:52:16.497Z,17.23
2023-04-09T11:57:21.676Z,16.70
2023-04-09T12:02:25.705Z,14.80
2023-04-09T12:07:33.604Z,16.52
2023-04-09T12:12:46.499Z,16.30
2023-04-09T12:17:51.569Z,14.05
2023-04-09T12:22:55.553Z,14.90
2023-04-09T12:28:00.819Z,17.17
2023-04-09T12:33:05.954Z,14.43
2023-04-09T12:38:10.653Z,16.85
2023-04-09T12:43:15.717Z,16.05
2023-04-09T12:48:19.564Z,13.62
2023-04-09T12:53:23.238Z,13.35
2023-04-09T12:58:28.312Z,13.23
2023-04-09T13:03:32.346Z,12.75
2023-04-09T13:08:36.424Z,12.37
2023-04-09T13:13:42.695Z,12.45
2023-04-09T13:18:46.537Z,11.48
2023-04-09T13:23:50.208Z,11.88
2023-04-09T13:28:55.324Z,12.70
2023-04-09T13:33:58.992Z,15.02
2023-04-09T13:39:05.090Z,10.93
2023-04-09T13:44:10.207Z,11.93
2023-04-09T13:49:14.008Z,14.38
2023-04-09T13:54:17.800Z,12.37
2023-04-09T13:59:22.834Z,13.35
2023-04-09T14:04:26.696Z,10.93
2023-04-09T14:09:30.598Z,11.50
2023-04-09T14:14:35.649Z,10.82
2023-04-09T14:19:39.587Z,11.43
2023-04-09T14:24:43.247Z,12.15
2023-04-09T14:29:48.275Z,10.55
2023-04-09T14:34:51.990Z,10.20
2023-04-09T14:39:55.755Z,8.90
2023-04-09T14:45:00.991Z,11.18
2023-04-09T14:50:05.240Z,10.32
2023-04-09T14:55:12.445Z,10.02
2023-04-09T15:00:18.273Z,6.40
2023-04-09T15:05:22.108Z,8.35
2023-04-09T15:10:26.006Z,11.18
2023-04-09T15:15:31.175Z,12.25
2023-04-09T15:20:37.689Z,9.43
2023-04-09T15:25:41.460Z,10.43
2023-04-09T15:30:46.704Z,10.45
2023-04-09T15:35:50.451Z,12.75
2023-04-09T15:40:56.356Z,6.82
2023-04-09T15:46:08.768Z,8.95
2023-04-09T15:51:12.790Z,10.02
2023-04-09T15:56:16.841Z,13.07
2023-04-09T16:01:22.003Z,11.52
2023-04-09T16:06:25.885Z,9.70
2023-04-09T16:11:29.615Z,10.70
2023-04-09T16:16:34.720Z,10.80
2023-04-09T16:21:38.772Z,9.77
2023-04-09T16:26:43.701Z,9.23
2023-04-09T16:31:48.845Z,9.45
2023-04-09T16:36:52.652Z,9.68
2023-04-09T16:41:58.297Z,8.43
2023-04-09T16:47:03.713Z,8.80
2023-04-09T16:52:07.576Z,10.15
2023-04-09T16:57:11.468Z,10.38
2023-04-09T17:02:16.852Z,14.35
2023-04-09T17:07:20.674Z,12.80
2023-04-09T17:12:24.679Z,10.05
2023-04-09T17:17:29.899Z,11.32
2023-04-09T17:22:35.083Z,10.57
2023-04-09T17:27:38.827Z,12.52
2023-04-09T17:32:44.277Z,10.75
2023-04-09T17:37:48.072Z,11.88
2023-04-09T17:42:51.797Z,9.48
2023-04-09T17:47:57.165Z,9.90
2023-04-09T17:53:00.965Z,14.15
2023-04-09T17:58:04.660Z,10.88
2023-04-09T18:03:10.038Z,11.25
2023-04-09T18:08:13.970Z,10.98
2023-04-09T18:13:17.704Z,11.55
2023-04-09T18:18:22.793Z,10.27
2023-04-09T18:23:26.999Z,10.07
2023-04-09T18:28:30.756Z,9.45
2023-04-09T18:33:35.811Z,11.05
2023-04-09T18:38:39.574Z,13.55
2023-04-09T18:43:43.966Z,10.57
2023-04-09T18:48:49.117Z,9.55
2023-04-09T18:53:54.743Z,11.50
2023-04-09T18:58:58.420Z,10.15
2023-04-09T19:04:03.665Z,11.82
2023-04-09T19:09:07.449Z,12.65
2023-04-09T19:14:11.129Z,10.07
2023-04-09T19:19:16.357Z,11.10
2023-04-09T19:24:20.113Z,11.10
2023-04-09T19:29:23.781Z,12.85
2023-04-09T19:34:28.841Z,13.77
2023-04-09T19:39:32.588Z,12.88
2023-04-09T19:44:36.356Z,15.82
2023-04-09T19:49:41.684Z,15.57
2023-04-09T19:54:46.388Z,13.95
2023-04-09T19:59:52.160Z,15.27
2023-04-09T20:04:57.417Z,12.93
2023-04-09T20:10:01.312Z,11.90
2023-04-09T20:15:07.418Z,16.00
2023-04-09T20:20:13.928Z,12.63
2023-04-09T20:25:17.793Z,15.93
2023-04-09T20:30:22.622Z,13.38
2023-04-09T20:35:27.897Z,14.77
2023-04-09T20:40:32.458Z,14.45
2023-04-09T20:45:36.528Z,14.07
2023-04-09T20:50:42.118Z,13.15
2023-04-09T20:55:46.360Z,16.42
2023-04-09T21:00:50.117Z,13.82
2023-04-09T21:05:55.551Z,12.37
2023-04-09T21:10:59.512Z,13.68
2023-04-09T21:16:03.604Z,14.25
2023-04-09T21:21:09.219Z,14.25
2023-04-09T21:26:14.263Z,14.57
2023-04-09T21:31:18.118Z,11.12
2023-04-09T21:36:23.270Z,14.90
2023-04-09T21:41:27.107Z,13.98
2023-04-09T21:46:30.931Z,13.68
2023-04-09T21:51:36.029Z,14.30
2023-04-09T21:56:40.183Z,16.02
2023-04-09T22:01:43.965Z,16.90
2023-04-09T22:06:49.336Z,14.87
2023-04-09T22:11:53.543Z,13.20
2023-04-09T22:16:58.325Z,16.15
2023-04-09T22:22:03.703Z,13.20
2023-04-09T22:27:07.518Z,13.65
2023-04-09T22:32:11.517Z,12.63
2023-04-09T22:37:17.084Z,13.62
2023-04-09T22:42:20.813Z,12.37
2023-04-09T22:47:24.617Z,13.23
2023-04-09T22:52:29.647Z,12.93
2023-04-09T22:57:33.455Z,11.10
2023-04-09T23:02:37.416Z,13.45
2023-04-09T23:07:42.938Z,12.45
2023-04-09T23:12:46.864Z,14.48
2023-04-09T23:17:51.904Z,11.93
2023-04-09T23:22:56.987Z,13.38
2023-04-09T23:28:00.885Z,15.95
2023-04-09T23:33:04.806Z,14.07
2023-04-09T23:38:09.913Z,18.50
2023-04-09T23:43:13.669Z,13.70
2023-04-09T23:48:17.648Z,15.55
2023-04-09T23:53:22.763Z,15.07
2023-04-09T23:58:26.429Z,13.45
